createdAt,value
2023-01-20T00:01:53.339Z,4.27
2023-01-20T00:04:20.948Z,5.30
2023-01-20T00:06:49.020Z,4.00
2023-01-20T00:09:18.472Z,4.90
2023-01-20T00:11:46.456Z,4.53
2023-01-20T00:14:15.110Z,3.67
2023-01-20T00:16:43.002Z,3.80
2023-01-20T00:19:14.066Z,3.97
2023-01-20T00:21:42.647Z,5.00
2023-01-20T00:24:10.528Z,4.83
2023-01-20T00:26:38.134Z,4.07
2023-01-20T00:29:06.419Z,5.50
2023-01-20T00:31:34.631Z,3.83
2023-01-20T00:34:03.269Z,3.70
2023-01-20T00:36:33.286Z,4.50
2023-01-20T00:39:02.654Z,4.93
2023-01-20T00:41:31.209Z,4.40
2023-01-20T00:43:59.567Z,5.57
2023-01-20T00:46:27.725Z,5.57
2023-01-20T00:48:55.407Z,5.50
2023-01-20T00:51:23.101Z,4.27
2023-01-20T00:53:53.110Z,7.80
2023-01-20T00:56:20.691Z,4.37
2023-01-20T00:58:48.865Z,6.27
2023-01-20T01:01:16.561Z,5.97
2023-01-20T01:03:45.535Z,5.50
2023-01-20T01:06:14.937Z,5.63
2023-01-20T01:08:43.293Z,6.20
2023-01-20T01:11:13.118Z,5.80
2023-01-20T01:13:42.546Z,7.17
2023-01-20T01:16:14.457Z,6.43
2023-01-20T01:18:43.196Z,6.23
2023-01-20T01:21:13.029Z,5.70
2023-01-20T01:23:41.669Z,6.40
2023-01-20T01:26:10.041Z,6.70
2023-01-20T01:28:39.759Z,5.97
2023-01-20T01:31:09.418Z,7.37
2023-01-20T01:33:38.583Z,7.57
2023-01-20T01:36:08.431Z,6.10
2023-01-20T01:38:36.655Z,6.87
2023-01-20T01:41:04.474Z,5.83
2023-01-20T01:43:34.722Z,5.40
2023-01-20T01:46:04.196Z,6.03
2023-01-20T01:48:38.404Z,7.07
2023-01-20T01:51:09.899Z,5.33
2023-01-20T01:53:43.505Z,5.47
2023-01-20T01:56:12.375Z,5.87
2023-01-20T01:58:43.415Z,6.20
2023-01-20T02:01:13.208Z,6.17
2023-01-20T02:03:49.042Z,5.73
2023-01-20T02:06:17.332Z,5.90
2023-01-20T02:08:45.736Z,5.37
2023-01-20T02:11:13.445Z,5.43
2023-01-20T02:13:41.452Z,6.97
2023-01-20T02:16:19.156Z,5.83
2023-01-20T02:18:59.482Z,6.27
2023-01-20T02:21:55.503Z,6.27
2023-01-20T02:25:06.369Z,6.87
2023-01-20T02:28:01.243Z,6.03
2023-01-20T02:30:53.924Z,6.70
2023-01-20T02:33:30.400Z,6.87
2023-01-20T02:36:03.557Z,6.50
2023-01-20T02:38:40.651Z,5.13
2023-01-20T02:41:13.771Z,5.23
2023-01-20T02:43:48.046Z,5.40
2023-01-20T02:46:19.716Z,6.03
2023-01-20T02:48:54.336Z,5.97
2023-01-20T02:51:27.897Z,6.60
2023-01-20T02:54:02.264Z,6.03
2023-01-20T02:56:31.512Z,6.67
2023-01-20T02:59:04.454Z,6.17
2023-01-20T03:01:35.508Z,6.80
2023-01-20T03:04:10.334Z,6.13
2023-01-20T03:06:43.401Z,7.93
2023-01-20T03:09:15.492Z,6.10
2023-01-20T03:11:54.355Z,5.70
2023-01-20T03:14:22.705Z,6.80
2023-01-20T03:16:50.508Z,6.17
2023-01-20T03:19:20.698Z,8.37
2023-01-20T03:21:49.281Z,7.53
2023-01-20T03:24:17.856Z,6.77
2023-01-20T03:26:45.579Z,6.97
2023-01-20T03:29:15.530Z,6.03
2023-01-20T03:31:47.625Z,7.37
2023-01-20T03:34:19.373Z,5.67
2023-01-20T03:36:49.157Z,6.90
2023-01-20T03:39:18.345Z,8.07
2023-01-20T03:41:58.997Z,6.77
2023-01-20T03:44:34.501Z,5.73
2023-01-20T03:47:11.174Z,7.33
2023-01-20T03:49:47.272Z,6.10
2023-01-20T03:52:23.583Z,6.83
2023-01-20T03:55:15.624Z,8.50
2023-01-20T03:57:48.878Z,9.13
2023-01-20T04:00:19.179Z,6.53
2023-01-20T04:02:46.926Z,6.90
2023-01-20T04:05:15.946Z,5.33
2023-01-20T04:07:47.813Z,6.07
2023-01-20T04:10:18.628Z,5.60
2023-01-20T04:12:46.460Z,6.33
2023-01-20T04:15:14.984Z,5.87
2023-01-20T04:17:43.030Z,6.93
2023-01-20T04:20:14.750Z,7.33
2023-01-20T04:22:50.006Z,5.90
2023-01-20T04:25:25.426Z,7.53
2023-01-20T04:27:53.348Z,6.47
2023-01-20T04:30:21.543Z,5.73
2023-01-20T04:32:49.219Z,6.50
2023-01-20T04:35:20.247Z,5.80
2023-01-20T04:37:49.659Z,5.37
2023-01-20T04:40:18.016Z,7.37
2023-01-20T04:42:45.587Z,5.77
2023-01-20T04:45:16.495Z,5.63
2023-01-20T04:47:44.599Z,5.90
2023-01-20T04:50:15.419Z,5.17
2023-01-20T04:52:43.514Z,6.13
2023-01-20T04:55:13.764Z,6.17
2023-01-20T04:57:41.510Z,5.93
2023-01-20T05:00:10.397Z,5.60
2023-01-20T05:02:38.023Z,7.57
2023-01-20T05:05:06.189Z,5.40
2023-01-20T05:07:33.754Z,6.27
2023-01-20T05:10:01.346Z,5.83
2023-01-20T05:12:30.245Z,5.10
2023-01-20T05:14:58.430Z,5.23
2023-01-20T05:17:26.058Z,4.87
2023-01-20T05:19:53.651Z,5.67
2023-01-20T05:22:21.831Z,5.70
2023-01-20T05:24:49.455Z,5.87
2023-01-20T05:27:17.039Z,5.73
2023-01-20T05:29:45.976Z,5.00
2023-01-20T05:32:14.203Z,6.23
2023-01-20T05:34:41.808Z,6.17
2023-01-20T05:37:09.656Z,6.90
2023-01-20T05:39:37.289Z,6.43
2023-01-20T05:42:05.539Z,6.30
2023-01-20T05:44:33.119Z,5.53
2023-01-20T05:47:02.118Z,6.00
2023-01-20T05:49:29.842Z,5.83
2023-01-20T05:51:58.201Z,5.53
2023-01-20T05:54:26.573Z,5.17
2023-01-20T05:56:54.891Z,3.60
2023-01-20T05:59:24.174Z,3.83
2023-01-20T06:01:52.349Z,4.53
2023-01-20T06:04:21.282Z,3.90
2023-01-20T06:06:49.568Z,4.20
2023-01-20T06:09:17.170Z,5.03
2023-01-20T06:11:45.093Z,3.63
2023-01-20T06:14:12.869Z,4.47
2023-01-20T06:16:41.375Z,4.77
2023-01-20T06:19:09.009Z,3.97
2023-01-20T06:21:38.644Z,5.00
2023-01-20T06:24:07.448Z,3.33
2023-01-20T06:26:35.057Z,3.60
2023-01-20T06:29:02.677Z,4.40
2023-01-20T06:31:30.733Z,4.27
2023-01-20T06:33:58.384Z,5.03
2023-01-20T06:36:27.099Z,4.80
2023-01-20T06:38:56.037Z,3.03
2023-01-20T06:41:25.188Z,5.07
2023-01-20T06:43:52.800Z,4.63
2023-01-20T06:46:21.115Z,5.73
2023-01-20T06:48:49.192Z,4.87
2023-01-20T06:51:19.640Z,4.63
2023-01-20T06:53:48.495Z,6.23
2023-01-20T06:56:17.472Z,4.87
2023-01-20T06:58:45.145Z,4.83
2023-01-20T07:01:16.807Z,4.40
2023-01-20T07:03:44.693Z,5.13
2023-01-20T07:06:17.004Z,6.10
2023-01-20T07:08:45.435Z,5.27
2023-01-20T07:11:13.661Z,5.43
2023-01-20T07:13:42.805Z,6.00
2023-01-20T07:16:14.399Z,5.03
2023-01-20T07:18:43.385Z,4.67
2023-01-20T07:21:12.649Z,5.20
2023-01-20T07:23:40.326Z,4.20
2023-01-20T07:26:09.974Z,5.13
2023-01-20T07:28:38.584Z,4.17
2023-01-20T07:31:10.432Z,4.07
2023-01-20T07:33:38.555Z,5.27
2023-01-20T07:36:07.829Z,5.50
2023-01-20T07:38:36.779Z,5.87
2023-01-20T07:41:06.416Z,5.00
2023-01-20T07:43:35.188Z,4.27
2023-01-20T07:46:04.537Z,5.37
2023-01-20T07:48:34.963Z,5.93
2023-01-20T07:51:05.624Z,6.07
2023-01-20T07:53:35.229Z,6.63
2023-01-20T07:56:03.311Z,5.97
2023-01-20T07:58:31.718Z,5.40
2023-01-20T08:00:59.427Z,6.43
2023-01-20T08:03:27.791Z,5.90
2023-01-20T08:05:56.694Z,6.57
2023-01-20T08:08:24.584Z,6.30
2023-01-20T08:10:54.785Z,6.57
2023-01-20T08:13:22.921Z,6.67
2023-01-20T08:15:50.518Z,6.63
2023-01-20T08:18:18.309Z,6.20
2023-01-20T08:20:45.990Z,5.47
2023-01-20T08:23:16.001Z,6.00
2023-01-20T08:25:43.979Z,6.40
2023-01-20T08:28:12.043Z,5.23
2023-01-20T08:30:39.828Z,6.40
2023-01-20T08:33:07.792Z,6.53
2023-01-20T08:35:36.417Z,6.37
2023-01-20T08:38:04.659Z,7.20
2023-01-20T08:40:34.248Z,6.30
2023-01-20T08:43:02.260Z,7.07
2023-01-20T08:45:29.853Z,8.17
2023-01-20T08:47:57.787Z,6.17
2023-01-20T08:50:25.591Z,6.87
2023-01-20T08:52:54.176Z,7.90
2023-01-20T08:55:21.738Z,6.17
2023-01-20T08:57:50.983Z,8.33
2023-01-20T09:00:19.539Z,7.90
2023-01-20T09:02:47.247Z,8.17
2023-01-20T09:05:15.990Z,8.83
2023-01-20T09:07:45.137Z,7.93
2023-01-20T09:10:13.993Z,7.97
2023-01-20T09:12:41.591Z,7.80
2023-01-20T09:15:12.761Z,6.80
2023-01-20T09:17:40.634Z,7.37
2023-01-20T09:20:09.891Z,6.87
2023-01-20T09:22:37.464Z,7.17
2023-01-20T09:25:06.724Z,10.87
2023-01-20T09:27:34.306Z,7.40
2023-01-20T09:30:02.014Z,7.30
2023-01-20T09:32:32.695Z,7.20
2023-01-20T09:35:00.644Z,9.43
2023-01-20T09:37:46.045Z,9.53
2023-01-20T09:40:36.954Z,9.97
2023-01-20T09:43:49.238Z,12.13
2023-01-20T09:46:25.262Z,7.90
2023-01-20T09:49:22.320Z,8.27
2023-01-20T09:52:16.447Z,7.03
2023-01-20T09:54:48.673Z,7.37
2023-01-20T09:57:19.475Z,7.63
2023-01-20T09:59:51.670Z,8.60
2023-01-20T10:02:24.615Z,9.37
2023-01-20T10:04:58.893Z,9.77
2023-01-20T10:07:34.334Z,8.50
2023-01-20T10:10:09.825Z,7.73
2023-01-20T10:12:43.023Z,9.37
2023-01-20T10:15:17.799Z,8.17
2023-01-20T10:17:52.273Z,7.97
2023-01-20T10:20:30.065Z,8.23
2023-01-20T10:23:03.545Z,6.43
2023-01-20T10:25:37.886Z,8.03
2023-01-20T10:28:11.721Z,7.97
2023-01-20T10:30:40.550Z,6.70
2023-01-20T10:33:11.162Z,6.03
2023-01-20T10:35:45.219Z,5.77
2023-01-20T10:38:21.903Z,7.40
2023-01-20T10:40:57.951Z,6.63
2023-01-20T10:43:26.624Z,6.63
2023-01-20T10:46:12.215Z,6.50
2023-01-20T10:49:06.553Z,7.13
2023-01-20T10:51:46.707Z,5.60
2023-01-20T10:54:25.832Z,5.50
2023-01-20T10:56:55.550Z,7.63
2023-01-20T10:59:30.502Z,6.87
2023-01-20T11:02:11.869Z,6.13
2023-01-20T11:04:41.832Z,6.17
2023-01-20T11:07:17.143Z,6.50
2023-01-20T11:09:45.954Z,6.80
2023-01-20T11:12:16.966Z,6.53
2023-01-20T11:14:45.333Z,6.27
2023-01-20T11:17:16.299Z,6.37
2023-01-20T11:19:53.677Z,6.43
2023-01-20T11:22:30.142Z,7.63
2023-01-20T11:25:00.063Z,7.87
2023-01-20T11:27:30.655Z,7.40
2023-01-20T11:30:02.326Z,6.80
2023-01-20T11:32:33.226Z,6.57
2023-01-20T11:35:02.715Z,6.83
2023-01-20T11:37:39.580Z,7.33
2023-01-20T11:40:20.530Z,8.23
2023-01-20T11:42:49.495Z,7.03
2023-01-20T11:45:27.475Z,7.07
2023-01-20T11:48:05.173Z,7.13
2023-01-20T11:50:50.917Z,7.30
2023-01-20T11:53:22.922Z,7.90
2023-01-20T11:55:53.255Z,6.87
2023-01-20T11:58:22.312Z,6.40
2023-01-20T12:00:54.334Z,7.73
2023-01-20T12:03:50.743Z,7.03
2023-01-20T12:06:22.331Z,8.30
2023-01-20T12:08:54.728Z,7.10
2023-01-20T12:11:28.693Z,7.97
2023-01-20T12:14:23.260Z,7.53
2023-01-20T12:17:16.395Z,7.23
2023-01-20T12:19:58.748Z,6.43
2023-01-20T12:22:33.835Z,7.93
2023-01-20T12:25:14.629Z,7.17
2023-01-20T12:27:47.681Z,7.33
2023-01-20T12:30:35.865Z,6.53
2023-01-20T12:33:03.806Z,6.87
2023-01-20T12:35:38.593Z,7.27
2023-01-20T12:38:08.513Z,6.77
2023-01-20T12:40:44.116Z,6.80
2023-01-20T12:43:37.287Z,7.53
2023-01-20T12:46:24.147Z,6.63
2023-01-20T12:49:02.639Z,7.40
2023-01-20T12:51:44.180Z,6.73
2023-01-20T12:54:47.474Z,6.80
2023-01-20T12:57:28.448Z,7.27
2023-01-20T13:00:16.327Z,7.00
2023-01-20T13:03:04.905Z,8.00
2023-01-20T13:05:58.751Z,8.30
2023-01-20T13:08:37.315Z,8.00
2023-01-20T13:11:16.663Z,8.57
2023-01-20T13:14:02.548Z,9.07
2023-01-20T13:16:35.893Z,8.53
2023-01-20T13:19:13.353Z,8.67
2023-01-20T13:21:42.857Z,8.93
2023-01-20T13:24:19.081Z,9.77
2023-01-20T13:26:49.537Z,7.73
2023-01-20T13:29:24.575Z,8.70
2023-01-20T13:31:53.979Z,8.20
2023-01-20T13:34:34.308Z,10.03
2023-01-20T13:37:23.951Z,7.43
2023-01-20T13:39:54.488Z,9.23
2023-01-20T13:42:31.195Z,7.40
2023-01-20T13:45:19.645Z,8.43
2023-01-20T13:48:03.788Z,8.63
2023-01-20T13:50:33.624Z,10.50
2023-01-20T13:53:27.811Z,10.80
2023-01-20T13:56:25.935Z,10.30
2023-01-20T13:58:53.581Z,7.73
2023-01-20T14:01:22.651Z,7.87
2023-01-20T14:04:03.972Z,8.60
2023-01-20T14:06:33.126Z,8.00
2023-01-20T14:09:02.351Z,9.23
2023-01-20T14:11:31.301Z,9.63
2023-01-20T14:14:02.075Z,9.30
2023-01-20T14:16:38.212Z,9.23
2023-01-20T14:19:16.770Z,9.50
2023-01-20T14:21:44.577Z,8.80
2023-01-20T14:24:28.438Z,8.10
2023-01-20T14:27:07.506Z,9.10
2023-01-20T14:29:35.512Z,8.80
2023-01-20T14:32:17.047Z,8.87
2023-01-20T14:34:45.150Z,7.37
2023-01-20T14:37:25.844Z,8.77
2023-01-20T14:39:54.949Z,7.00
2023-01-20T14:42:24.099Z,6.60
2023-01-20T14:44:53.194Z,8.40
2023-01-20T14:47:25.180Z,8.07
2023-01-20T14:49:54.804Z,7.97
2023-01-20T14:52:25.759Z,6.93
2023-01-20T14:54:56.160Z,7.23
2023-01-20T14:57:29.899Z,8.10
2023-01-20T15:00:04.683Z,9.60
2023-01-20T15:02:35.928Z,9.40
2023-01-20T15:05:03.970Z,6.93
2023-01-20T15:07:31.647Z,7.43
2023-01-20T15:10:03.142Z,7.80
2023-01-20T15:12:42.418Z,8.17
2023-01-20T15:15:30.049Z,7.67
2023-01-20T15:18:07.011Z,7.57
2023-01-20T15:20:35.933Z,8.33
2023-01-20T15:23:03.887Z,7.93
2023-01-20T15:25:31.652Z,6.30
2023-01-20T15:27:59.857Z,8.10
2023-01-20T15:30:29.749Z,7.03
2023-01-20T15:32:58.113Z,7.03
2023-01-20T15:35:27.256Z,8.63
2023-01-20T15:37:55.780Z,7.70
2023-01-20T15:40:25.564Z,6.77
2023-01-20T15:42:53.408Z,7.57
2023-01-20T15:45:21.278Z,7.40
2023-01-20T15:47:49.766Z,6.93
2023-01-20T15:50:20.270Z,7.80
2023-01-20T15:52:49.541Z,8.97
2023-01-20T15:55:19.233Z,7.00
2023-01-20T15:57:50.587Z,6.27
2023-01-20T16:00:20.555Z,7.63
2023-01-20T16:02:48.684Z,7.90
2023-01-20T16:05:17.871Z,8.17
2023-01-20T16:07:47.492Z,7.50
2023-01-20T16:10:18.947Z,7.90
2023-01-20T16:12:47.443Z,9.07
2023-01-20T16:15:18.333Z,6.03
2023-01-20T16:17:46.129Z,7.70
2023-01-20T16:20:21.963Z,8.47
2023-01-20T16:22:49.752Z,8.17
2023-01-20T16:25:19.025Z,8.07
2023-01-20T16:27:47.048Z,7.17
2023-01-20T16:30:17.396Z,7.13
2023-01-20T16:32:46.524Z,8.00
2023-01-20T16:35:15.087Z,8.93
2023-01-20T16:37:43.708Z,6.60
2023-01-20T16:40:14.792Z,7.47
2023-01-20T16:42:43.893Z,7.47
2023-01-20T16:45:24.148Z,7.63
2023-01-20T16:47:51.791Z,6.80
2023-01-20T16:50:19.772Z,7.53
2023-01-20T16:52:48.119Z,7.37
2023-01-20T16:55:16.350Z,6.53
2023-01-20T16:57:45.284Z,6.30
2023-01-20T17:00:15.041Z,7.63
2023-01-20T17:02:45.520Z,7.80
2023-01-20T17:05:13.253Z,5.23
2023-01-20T17:07:40.829Z,8.83
2023-01-20T17:10:09.547Z,5.63
2023-01-20T17:12:37.132Z,6.73
2023-01-20T17:15:07.899Z,7.57
2023-01-20T17:17:38.505Z,5.60
2023-01-20T17:20:10.153Z,6.37
2023-01-20T17:22:39.167Z,5.20
2023-01-20T17:25:08.701Z,7.00
2023-01-20T17:27:36.548Z,5.50
2023-01-20T17:30:07.814Z,5.23
2023-01-20T17:32:35.864Z,5.63
2023-01-20T17:35:04.878Z,4.93
2023-01-20T17:37:32.582Z,5.17
2023-01-20T17:40:00.715Z,6.07
2023-01-20T17:42:28.355Z,5.87
2023-01-20T17:44:58.403Z,6.27
2023-01-20T17:47:28.063Z,7.00
2023-01-20T17:49:56.988Z,7.13
2023-01-20T17:52:24.596Z,8.83
2023-01-20T17:54:52.661Z,8.17
2023-01-20T17:57:20.297Z,7.17
2023-01-20T17:59:47.969Z,6.57
2023-01-20T18:02:18.798Z,5.80
2023-01-20T18:04:47.785Z,6.60
2023-01-20T18:07:15.685Z,7.20
2023-01-20T18:09:43.288Z,6.53
2023-01-20T18:12:10.897Z,5.43
2023-01-20T18:14:38.602Z,6.10
2023-01-20T18:17:06.422Z,7.43
2023-01-20T18:19:34.260Z,7.70
2023-01-20T18:22:07.057Z,6.23
2023-01-20T18:24:34.758Z,6.97
2023-01-20T18:27:02.483Z,6.57
2023-01-20T18:29:30.647Z,6.87
2023-01-20T18:31:59.210Z,6.67
2023-01-20T18:34:27.304Z,5.67
2023-01-20T18:36:54.937Z,5.40
2023-01-20T18:39:25.294Z,6.77
2023-01-20T18:41:53.248Z,6.90
2023-01-20T18:44:22.226Z,6.30
2023-01-20T18:46:50.108Z,6.33
2023-01-20T18:49:18.751Z,7.43
2023-01-20T18:51:48.057Z,5.63
2023-01-20T18:54:18.358Z,5.97
2023-01-20T18:56:47.920Z,6.00
2023-01-20T18:59:15.901Z,5.97
2023-01-20T19:01:46.303Z,5.67
2023-01-20T19:04:14.375Z,6.27
2023-01-20T19:06:43.469Z,5.97
2023-01-20T19:09:12.016Z,6.53
2023-01-20T19:11:40.933Z,6.93
2023-01-20T19:14:13.163Z,6.27
2023-01-20T19:16:45.078Z,7.83
2023-01-20T19:19:13.676Z,6.23
2023-01-20T19:21:41.640Z,6.03
2023-01-20T19:24:11.863Z,6.73
2023-01-20T19:26:40.322Z,7.57
2023-01-20T19:29:15.622Z,5.73
2023-01-20T19:31:44.148Z,6.43
2023-01-20T19:34:11.827Z,7.23
2023-01-20T19:36:40.170Z,6.67
2023-01-20T19:39:07.896Z,6.43
2023-01-20T19:41:36.780Z,6.40
2023-01-20T19:44:07.728Z,7.37
2023-01-20T19:46:39.148Z,5.93
2023-01-20T19:49:07.473Z,7.53
2023-01-20T19:51:37.686Z,7.27
2023-01-20T19:54:06.643Z,6.60
2023-01-20T19:56:36.249Z,6.73
2023-01-20T19:59:05.839Z,7.90
2023-01-20T20:01:35.855Z,7.10
2023-01-20T20:04:07.665Z,6.33
2023-01-20T20:06:38.306Z,7.87
2023-01-20T20:09:08.036Z,7.57
2023-01-20T20:11:37.851Z,8.17
2023-01-20T20:14:07.469Z,8.10
2023-01-20T20:16:37.674Z,5.43
2023-01-20T20:19:09.752Z,6.23
2023-01-20T20:21:38.609Z,7.27
2023-01-20T20:24:06.875Z,7.90
2023-01-20T20:26:36.869Z,7.43
2023-01-20T20:29:06.240Z,6.17
2023-01-20T20:31:36.272Z,7.07
2023-01-20T20:34:07.546Z,8.37
2023-01-20T20:36:36.156Z,7.23
2023-01-20T20:39:04.946Z,8.33
2023-01-20T20:41:35.587Z,6.97
2023-01-20T20:44:04.086Z,7.47
2023-01-20T20:46:32.394Z,6.57
2023-01-20T20:49:02.328Z,8.30
2023-01-20T20:51:33.627Z,6.67
2023-01-20T20:54:03.709Z,7.47
2023-01-20T20:56:32.390Z,6.37
2023-01-20T20:59:03.359Z,8.23
2023-01-20T21:01:32.608Z,7.03
2023-01-20T21:04:01.184Z,8.27
2023-01-20T21:06:29.451Z,5.97
2023-01-20T21:08:59.913Z,6.63
2023-01-20T21:11:28.119Z,6.87
2023-01-20T21:13:56.253Z,7.73
2023-01-20T21:16:25.309Z,6.63
2023-01-20T21:18:56.041Z,7.43
2023-01-20T21:21:24.205Z,6.53
2023-01-20T21:23:53.528Z,6.93
2023-01-20T21:26:23.506Z,6.27
2023-01-20T21:28:51.946Z,8.20
2023-01-20T21:31:21.904Z,7.77
2023-01-20T21:33:54.401Z,7.70
2023-01-20T21:36:22.156Z,6.83
2023-01-20T21:38:50.837Z,8.20
2023-01-20T21:41:19.695Z,8.17
2023-01-20T21:44:06.969Z,7.40
2023-01-20T21:46:38.425Z,6.23
2023-01-20T21:49:25.857Z,8.50
2023-01-20T21:52:12.064Z,7.07
2023-01-20T21:54:41.264Z,8.67
2023-01-20T21:57:09.252Z,9.47
2023-01-20T21:59:39.245Z,8.27
2023-01-20T22:02:07.429Z,11.03
2023-01-20T22:04:35.964Z,8.27
2023-01-20T22:07:03.569Z,7.90
2023-01-20T22:09:31.565Z,9.37
2023-01-20T22:11:59.227Z,8.33
2023-01-20T22:14:27.307Z,8.33
2023-01-20T22:16:56.292Z,9.80
2023-01-20T22:19:23.915Z,9.40
2023-01-20T22:21:51.875Z,10.60
2023-01-20T22:24:20.255Z,8.60
2023-01-20T22:26:48.391Z,7.57
2023-01-20T22:29:16.651Z,8.00
2023-01-20T22:31:44.388Z,7.43
2023-01-20T22:34:13.689Z,7.70
2023-01-20T22:36:41.607Z,7.90
2023-01-20T22:39:11.985Z,8.20
2023-01-20T22:41:39.668Z,10.13
2023-01-20T22:44:08.018Z,8.57
2023-01-20T22:46:35.667Z,7.73
2023-01-20T22:49:03.680Z,8.43
2023-01-20T22:51:32.753Z,8.23
2023-01-20T22:54:02.514Z,7.93
2023-01-20T22:56:33.049Z,6.90
2023-01-20T22:59:01.753Z,9.07
2023-01-20T23:01:31.962Z,7.70
2023-01-20T23:04:01.577Z,8.53
2023-01-20T23:06:32.436Z,9.17
2023-01-20T23:09:03.312Z,8.43
2023-01-20T23:11:31.580Z,9.63
2023-01-20T23:14:00.195Z,10.13
2023-01-20T23:16:28.008Z,9.37
2023-01-20T23:18:55.700Z,8.97
2023-01-20T23:21:24.536Z,9.07
2023-01-20T23:23:54.571Z,9.83
2023-01-20T23:26:25.657Z,8.77
2023-01-20T23:28:53.895Z,7.33
2023-01-20T23:31:23.483Z,8.87
2023-01-20T23:33:51.478Z,9.13
2023-01-20T23:36:21.924Z,7.97
2023-01-20T23:38:49.740Z,8.43
2023-01-20T23:41:17.778Z,8.90
2023-01-20T23:43:46.748Z,9.27
2023-01-20T23:46:14.790Z,11.07
2023-01-20T23:48:42.483Z,8.10
2023-01-20T23:51:10.755Z,9.17
2023-01-20T23:53:40.376Z,8.20
2023-01-20T23:56:13.446Z,9.60
2023-01-20T23:58:41.539Z,9.20
